Terminal Aerodrome Forecast
Issued by NWS Wilmington, OH

Current Version | Previous Version | Graphics & Text | Print | Product List | Glossary On
Versions: 1 2 3 4 5 6 7 8 9 10 11 12
000
FTUS41 KILN 190526
TAFDAY
TAF
KDAY 190526Z 1906/2006 25005KT P6SM SCT250
     FM191100 24005KT P6SM BKN120
     FM191200 24006KT P6SM VCSH BKN080
     FM191500 26010G17KT P6SM SCT040
     FM192100 30010KT P6SM SCT045
     FM200000 32005KT P6SM SKC=

USA.gov is the U.S. government's official web portal to all federal, state and local government web resources and services.